sensor_id;sensor_type;location;lat;lon;timestamp;pressure;altitude;pressure_sealevel;temperature;humidity
41706;BME280;27385;51.096;17.190;2022-12-29T00:00:51;100031.09;;;6.15;79.32
41706;BME280;27385;51.096;17.190;2022-12-29T00:03:24;100029.34;;;6.15;79.39
41706;BME280;27385;51.096;17.190;2022-12-29T00:05:57;100030.83;;;6.16;79.34
41706;BME280;27385;51.096;17.190;2022-12-29T00:08:28;100033.11;;;6.16;79.33
41706;BME280;27385;51.096;17.190;2022-12-29T00:11:11;100025.86;;;6.17;79.25
41706;BME280;27385;51.096;17.190;2022-12-29T00:13:42;100027.42;;;6.18;79.26
41706;BME280;27385;51.096;17.190;2022-12-29T00:16:33;100029.48;;;6.19;79.12
41706;BME280;27385;51.096;17.190;2022-12-29T00:19:05;100022.41;;;6.20;79.26
41706;BME280;27385;51.096;17.190;2022-12-29T00:21:56;100016.08;;;6.22;79.00
41706;BME280;27385;51.096;17.190;2022-12-29T00:24:45;100009.05;;;6.23;79.04
41706;BME280;27385;51.096;17.190;2022-12-29T00:27:34;100007.71;;;6.25;78.91
41706;BME280;27385;51.096;17.190;2022-12-29T00:30:23;100010.55;;;6.28;78.77
41706;BME280;27385;51.096;17.190;2022-12-29T00:33:14;100006.27;;;6.30;78.70
41706;BME280;27385;51.096;17.190;2022-12-29T00:36:06;100003.65;;;6.32;78.81
41706;BME280;27385;51.096;17.190;2022-12-29T00:38:42;100003.34;;;6.33;78.92
41706;BME280;27385;51.096;17.190;2022-12-29T00:41:34;100003.23;;;6.35;78.92
41706;BME280;27385;51.096;17.190;2022-12-29T00:44:24;99995.38;;;6.37;78.75
41706;BME280;27385;51.096;17.190;2022-12-29T00:46:54;99984.63;;;6.38;78.56
41706;BME280;27385;51.096;17.190;2022-12-29T00:49:25;99983.04;;;6.40;78.63
41706;BME280;27385;51.096;17.190;2022-12-29T00:52:05;99973.95;;;6.42;78.79
41706;BME280;27385;51.096;17.190;2022-12-29T00:54:37;99973.39;;;6.41;78.45
41706;BME280;27385;51.096;17.190;2022-12-29T00:57:09;99969.89;;;6.42;78.53
41706;BME280;27385;51.096;17.190;2022-12-29T00:59:42;99958.61;;;6.43;78.58
41706;BME280;27385;51.096;17.190;2022-12-29T01:02:14;99964.98;;;6.43;78.45
41706;BME280;27385;51.096;17.190;2022-12-29T01:04:45;99967.77;;;6.41;78.42
41706;BME280;27385;51.096;17.190;2022-12-29T01:07:16;99963.79;;;6.40;78.38
41706;BME280;27385;51.096;17.190;2022-12-29T01:09:47;99961.06;;;6.41;78.35
41706;BME280;27385;51.096;17.190;2022-12-29T01:15:59;99949.48;;;6.38;78.40
41706;BME280;27385;51.096;17.190;2022-12-29T01:18:31;99952.69;;;6.37;78.39
41706;BME280;27385;51.096;17.190;2022-12-29T01:21:04;99948.73;;;6.35;78.31
41706;BME280;27385;51.096;17.190;2022-12-29T01:23:36;99947.98;;;6.33;78.31
41706;BME280;27385;51.096;17.190;2022-12-29T01:26:14;99953.03;;;6.32;78.50
41706;BME280;27385;51.096;17.190;2022-12-29T01:28:46;99949.77;;;6.31;78.44
41706;BME280;27385;51.096;17.190;2022-12-29T01:31:17;99957.31;;;6.28;78.37
41706;BME280;27385;51.096;17.190;2022-12-29T01:33:49;99952.44;;;6.27;78.47
41706;BME280;27385;51.096;17.190;2022-12-29T01:36:20;99942.11;;;6.26;78.50
41706;BME280;27385;51.096;17.190;2022-12-29T01:38:51;99937.17;;;6.23;78.49
41706;BME280;27385;51.096;17.190;2022-12-29T01:41:23;99937.48;;;6.21;78.60
41706;BME280;27385;51.096;17.190;2022-12-29T01:43:56;99939.68;;;6.19;78.52
41706;BME280;27385;51.096;17.190;2022-12-29T01:46:32;99933.48;;;6.18;78.55
41706;BME280;27385;51.096;17.190;2022-12-29T01:49:11;99931.53;;;6.17;78.54
41706;BME280;27385;51.096;17.190;2022-12-29T01:51:47;99927.89;;;6.15;78.49
41706;BME280;27385;51.096;17.190;2022-12-29T01:54:22;99932.16;;;6.14;78.44
41706;BME280;27385;51.096;17.190;2022-12-29T01:56:58;99929.28;;;6.12;78.42
41706;BME280;27385;51.096;17.190;2022-12-29T01:59:32;99924.98;;;6.11;78.42
41706;BME280;27385;51.096;17.190;2022-12-29T02:02:06;99918.30;;;6.09;78.59
41706;BME280;27385;51.096;17.190;2022-12-29T02:04:41;99920.70;;;6.09;78.50
41706;BME280;27385;51.096;17.190;2022-12-29T02:07:17;99911.92;;;6.09;78.60
41706;BME280;27385;51.096;17.190;2022-12-29T02:09:50;99897.61;;;6.08;78.67
41706;BME280;27385;51.096;17.190;2022-12-29T02:12:25;99896.52;;;6.08;78.81
41706;BME280;27385;51.096;17.190;2022-12-29T02:14:58;99901.14;;;6.09;78.82
41706;BME280;27385;51.096;17.190;2022-12-29T02:17:44;99899.38;;;6.08;78.69
41706;BME280;27385;51.096;17.190;2022-12-29T02:20:47;99902.10;;;6.09;78.69
41706;BME280;27385;51.096;17.190;2022-12-29T02:23:47;99897.61;;;6.08;78.81
41706;BME280;27385;51.096;17.190;2022-12-29T02:26:43;99901.73;;;6.08;78.81
41706;BME280;27385;51.096;17.190;2022-12-29T02:29:47;99897.80;;;6.08;78.65
41706;BME280;27385;51.096;17.190;2022-12-29T02:32:27;99899.47;;;6.08;78.55
41706;BME280;27385;51.096;17.190;2022-12-29T02:35:07;99894.80;;;6.07;78.40
41706;BME280;27385;51.096;17.190;2022-12-29T02:37:45;99891.69;;;6.06;78.22
41706;BME280;27385;51.096;17.190;2022-12-29T02:40:25;99893.91;;;6.06;78.33
41706;BME280;27385;51.096;17.190;2022-12-29T02:43:03;99895.73;;;6.06;78.41
41706;BME280;27385;51.096;17.190;2022-12-29T02:45:40;99898.75;;;6.06;78.32
41706;BME280;27385;51.096;17.190;2022-12-29T02:48:20;99895.69;;;6.05;78.26
41706;BME280;27385;51.096;17.190;2022-12-29T02:51:00;99892.33;;;6.04;78.22
41706;BME280;27385;51.096;17.190;2022-12-29T02:53:34;99886.69;;;6.02;78.13
41706;BME280;27385;51.096;17.190;2022-12-29T02:56:24;99880.56;;;6.01;78.37
41706;BME280;27385;51.096;17.190;2022-12-29T02:58:56;99877.08;;;5.99;78.05
41706;BME280;27385;51.096;17.190;2022-12-29T03:01:37;99877.56;;;5.99;78.11
41706;BME280;27385;51.096;17.190;2022-12-29T03:04:42;99880.98;;;5.97;78.26
41706;BME280;27385;51.096;17.190;2022-12-29T03:07:26;99877.64;;;5.97;78.22
41706;BME280;27385;51.096;17.190;2022-12-29T03:10:08;99871.60;;;5.98;78.05
41706;BME280;27385;51.096;17.190;2022-12-29T03:12:47;99866.39;;;5.99;78.21
41706;BME280;27385;51.096;17.190;2022-12-29T03:15:42;99869.47;;;5.99;78.12
41706;BME280;27385;51.096;17.190;2022-12-29T03:18:41;99866.91;;;6.00;78.00
41706;BME280;27385;51.096;17.190;2022-12-29T03:21:19;99858.72;;;6.01;77.93
41706;BME280;27385;51.096;17.190;2022-12-29T03:24:13;99856.55;;;6.02;77.78
41706;BME280;27385;51.096;17.190;2022-12-29T03:26:47;99852.85;;;6.03;77.65
41706;BME280;27385;51.096;17.190;2022-12-29T03:29:19;99850.27;;;6.04;77.63
41706;BME280;27385;51.096;17.190;2022-12-29T03:31:53;99847.96;;;6.06;77.68
41706;BME280;27385;51.096;17.190;2022-12-29T03:34:25;99847.85;;;6.07;77.64
41706;BME280;27385;51.096;17.190;2022-12-29T03:37:00;99850.96;;;6.09;77.62
41706;BME280;27385;51.096;17.190;2022-12-29T03:39:34;99865.08;;;6.10;77.52
41706;BME280;27385;51.096;17.190;2022-12-29T03:42:08;99865.11;;;6.11;77.46
41706;BME280;27385;51.096;17.190;2022-12-29T03:44:43;99866.70;;;6.13;77.49
41706;BME280;27385;51.096;17.190;2022-12-29T03:47:15;99862.19;;;6.15;77.94
41706;BME280;27385;51.096;17.190;2022-12-29T03:49:46;99856.23;;;6.15;77.97
41706;BME280;27385;51.096;17.190;2022-12-29T03:52:17;99855.57;;;6.16;78.02
41706;BME280;27385;51.096;17.190;2022-12-29T03:54:48;99860.77;;;6.16;78.12
41706;BME280;27385;51.096;17.190;2022-12-29T03:57:19;99856.62;;;6.15;78.00
41706;BME280;27385;51.096;17.190;2022-12-29T03:59:50;99863.11;;;6.15;77.95
41706;BME280;27385;51.096;17.190;2022-12-29T04:02:21;99865.27;;;6.15;77.57
41706;BME280;27385;51.096;17.190;2022-12-29T04:04:53;99859.11;;;6.16;77.88
41706;BME280;27385;51.096;17.190;2022-12-29T04:07:24;99851.14;;;6.16;77.78
41706;BME280;27385;51.096;17.190;2022-12-29T04:09:55;99851.36;;;6.16;77.55
41706;BME280;27385;51.096;17.190;2022-12-29T04:12:26;99847.86;;;6.16;77.41
41706;BME280;27385;51.096;17.190;2022-12-29T04:14:57;99841.74;;;6.17;77.30
41706;BME280;27385;51.096;17.190;2022-12-29T04:17:28;99838.11;;;6.17;77.40
41706;BME280;27385;51.096;17.190;2022-12-29T04:19:59;99837.93;;;6.17;77.11
41706;BME280;27385;51.096;17.190;2022-12-29T04:22:43;99835.93;;;6.18;77.34
41706;BME280;27385;51.096;17.190;2022-12-29T04:25:15;99841.55;;;6.18;77.10
41706;BME280;27385;51.096;17.190;2022-12-29T04:27:45;99839.34;;;6.18;76.95
41706;BME280;27385;51.096;17.190;2022-12-29T04:30:16;99839.46;;;6.19;76.98
41706;BME280;27385;51.096;17.190;2022-12-29T04:32:47;99835.73;;;6.19;76.93
41706;BME280;27385;51.096;17.190;2022-12-29T04:35:18;99828.04;;;6.19;76.98
41706;BME280;27385;51.096;17.190;2022-12-29T04:37:49;99820.28;;;6.19;77.00
41706;BME280;27385;51.096;17.190;2022-12-29T04:40:20;99817.41;;;6.19;76.67
41706;BME280;27385;51.096;17.190;2022-12-29T04:42:52;99810.42;;;6.20;76.83
41706;BME280;27385;51.096;17.190;2022-12-29T04:45:23;99809.20;;;6.21;76.68
41706;BME280;27385;51.096;17.190;2022-12-29T04:47:54;99815.76;;;6.21;76.56
41706;BME280;27385;51.096;17.190;2022-12-29T04:50:25;99816.95;;;6.21;76.46
41706;BME280;27385;51.096;17.190;2022-12-29T04:52:56;99822.10;;;6.21;76.51
41706;BME280;27385;51.096;17.190;2022-12-29T04:55:27;99820.50;;;6.21;76.57
41706;BME280;27385;51.096;17.190;2022-12-29T04:57:58;99819.92;;;6.20;76.60
41706;BME280;27385;51.096;17.190;2022-12-29T05:00:29;99812.41;;;6.20;76.55
41706;BME280;27385;51.096;17.190;2022-12-29T05:03:00;99813.94;;;6.19;76.48
41706;BME280;27385;51.096;17.190;2022-12-29T05:05:32;99812.41;;;6.20;76.52
41706;BME280;27385;51.096;17.190;2022-12-29T05:08:03;99813.11;;;6.20;76.71
41706;BME280;27385;51.096;17.190;2022-12-29T05:10:34;99808.99;;;6.20;76.45
41706;BME280;27385;51.096;17.190;2022-12-29T05:13:05;99809.14;;;6.20;76.58
41706;BME280;27385;51.096;17.190;2022-12-29T05:15:36;99805.33;;;6.21;76.49
41706;BME280;27385;51.096;17.190;2022-12-29T05:21:31;99796.54;;;6.22;76.37
41706;BME280;27385;51.096;17.190;2022-12-29T05:24:02;99793.95;;;6.23;76.39
41706;BME280;27385;51.096;17.190;2022-12-29T05:26:34;99793.45;;;6.24;76.29
41706;BME280;27385;51.096;17.190;2022-12-29T05:29:05;99791.01;;;6.26;76.30
41706;BME280;27385;51.096;17.190;2022-12-29T05:31:36;99789.10;;;6.26;76.22
41706;BME280;27385;51.096;17.190;2022-12-29T05:34:08;99787.52;;;6.28;76.14
41706;BME280;27385;51.096;17.190;2022-12-29T05:36:40;99782.64;;;6.29;76.38
41706;BME280;27385;51.096;17.190;2022-12-29T05:39:11;99784.08;;;6.30;76.22
41706;BME280;27385;51.096;17.190;2022-12-29T05:41:42;99781.34;;;6.31;76.25
41706;BME280;27385;51.096;17.190;2022-12-29T05:44:14;99778.10;;;6.33;76.05
41706;BME280;27385;51.096;17.190;2022-12-29T05:46:44;99772.52;;;6.34;76.05
41706;BME280;27385;51.096;17.190;2022-12-29T05:49:15;99773.21;;;6.33;75.86
41706;BME280;27385;51.096;17.190;2022-12-29T05:55:17;99770.00;;;6.30;75.46
41706;BME280;27385;51.096;17.190;2022-12-29T05:57:49;99767.20;;;6.29;75.44
41706;BME280;27385;51.096;17.190;2022-12-29T06:00:20;99764.33;;;6.27;75.28
41706;BME280;27385;51.096;17.190;2022-12-29T06:02:52;99769.88;;;6.27;75.06
41706;BME280;27385;51.096;17.190;2022-12-29T06:05:23;99766.70;;;6.27;74.99
41706;BME280;27385;51.096;17.190;2022-12-29T06:07:55;99766.27;;;6.29;74.83
41706;BME280;27385;51.096;17.190;2022-12-29T06:10:26;99763.73;;;6.30;74.92
41706;BME280;27385;51.096;17.190;2022-12-29T06:12:58;99766.02;;;6.32;74.77
41706;BME280;27385;51.096;17.190;2022-12-29T06:15:29;99768.17;;;6.33;74.91
41706;BME280;27385;51.096;17.190;2022-12-29T06:18:00;99760.48;;;6.33;74.68
41706;BME280;27385;51.096;17.190;2022-12-29T06:20:32;99762.37;;;6.34;74.70
41706;BME280;27385;51.096;17.190;2022-12-29T06:23:03;99759.84;;;6.34;74.37
41706;BME280;27385;51.096;17.190;2022-12-29T06:25:35;99764.70;;;6.33;74.46
41706;BME280;27385;51.096;17.190;2022-12-29T06:28:06;99766.21;;;6.33;74.66
41706;BME280;27385;51.096;17.190;2022-12-29T06:30:38;99768.98;;;6.33;74.79
41706;BME280;27385;51.096;17.190;2022-12-29T06:33:10;99768.83;;;6.33;74.63
41706;BME280;27385;51.096;17.190;2022-12-29T06:35:41;99765.54;;;6.32;74.53
41706;BME280;27385;51.096;17.190;2022-12-29T06:38:12;99761.56;;;6.33;74.57
41706;BME280;27385;51.096;17.190;2022-12-29T06:40:45;99759.16;;;6.33;74.56
41706;BME280;27385;51.096;17.190;2022-12-29T06:43:16;99757.25;;;6.33;74.62
41706;BME280;27385;51.096;17.190;2022-12-29T06:45:47;99761.14;;;6.33;74.55
41706;BME280;27385;51.096;17.190;2022-12-29T06:48:18;99770.98;;;6.34;74.50
41706;BME280;27385;51.096;17.190;2022-12-29T06:50:49;99773.14;;;6.36;74.30
41706;BME280;27385;51.096;17.190;2022-12-29T06:53:21;99773.33;;;6.37;74.22
41706;BME280;27385;51.096;17.190;2022-12-29T06:55:53;99774.92;;;6.38;74.08
41706;BME280;27385;51.096;17.190;2022-12-29T06:58:24;99773.33;;;6.41;74.09
41706;BME280;27385;51.096;17.190;2022-12-29T07:00:55;99778.98;;;6.42;73.88
41706;BME280;27385;51.096;17.190;2022-12-29T07:03:26;99776.92;;;6.43;73.94
41706;BME280;27385;51.096;17.190;2022-12-29T07:05:58;99772.44;;;6.45;74.11
41706;BME280;27385;51.096;17.190;2022-12-29T07:08:29;99774.73;;;6.45;73.74
41706;BME280;27385;51.096;17.190;2022-12-29T07:11:01;99775.65;;;6.46;73.75
41706;BME280;27385;51.096;17.190;2022-12-29T07:13:32;99776.45;;;6.47;73.94
41706;BME280;27385;51.096;17.190;2022-12-29T07:16:08;99776.52;;;6.48;73.85
41706;BME280;27385;51.096;17.190;2022-12-29T07:18:39;99779.18;;;6.48;73.69
41706;BME280;27385;51.096;17.190;2022-12-29T07:21:11;99781.63;;;6.49;73.84
41706;BME280;27385;51.096;17.190;2022-12-29T07:23:42;99783.81;;;6.49;73.83
41706;BME280;27385;51.096;17.190;2022-12-29T07:26:15;99783.41;;;6.49;74.14
41706;BME280;27385;51.096;17.190;2022-12-29T07:28:47;99790.09;;;6.51;74.03
41706;BME280;27385;51.096;17.190;2022-12-29T07:31:21;99783.10;;;6.51;73.85
41706;BME280;27385;51.096;17.190;2022-12-29T07:33:52;99777.01;;;6.51;74.01
41706;BME280;27385;51.096;17.190;2022-12-29T07:36:23;99780.63;;;6.51;74.02
41706;BME280;27385;51.096;17.190;2022-12-29T07:38:54;99777.02;;;6.52;74.06
41706;BME280;27385;51.096;17.190;2022-12-29T07:41:26;99779.06;;;6.53;73.93
41706;BME280;27385;51.096;17.190;2022-12-29T07:43:57;99780.02;;;6.55;73.80
41706;BME280;27385;51.096;17.190;2022-12-29T07:46:29;99781.52;;;6.56;73.87
41706;BME280;27385;51.096;17.190;2022-12-29T07:49:01;99781.86;;;6.58;73.85
41706;BME280;27385;51.096;17.190;2022-12-29T07:51:32;99776.48;;;6.60;73.83
41706;BME280;27385;51.096;17.190;2022-12-29T07:54:04;99775.41;;;6.62;73.60
41706;BME280;27385;51.096;17.190;2022-12-29T07:56:35;99777.55;;;6.64;73.66
41706;BME280;27385;51.096;17.190;2022-12-29T07:59:06;99777.73;;;6.65;73.93
41706;BME280;27385;51.096;17.190;2022-12-29T08:01:38;99778.94;;;6.67;73.72
41706;BME280;27385;51.096;17.190;2022-12-29T08:04:09;99780.91;;;6.69;73.64
41706;BME280;27385;51.096;17.190;2022-12-29T08:06:40;99785.72;;;6.71;73.74
41706;BME280;27385;51.096;17.190;2022-12-29T08:09:11;99783.70;;;6.73;74.00
41706;BME280;27385;51.096;17.190;2022-12-29T08:11:42;99785.83;;;6.75;74.09
41706;BME280;27385;51.096;17.190;2022-12-29T08:14:13;99784.65;;;6.77;74.13
41706;BME280;27385;51.096;17.190;2022-12-29T08:16:44;99785.12;;;6.79;74.02
41706;BME280;27385;51.096;17.190;2022-12-29T08:19:15;99787.17;;;6.81;73.91
41706;BME280;27385;51.096;17.190;2022-12-29T08:21:46;99791.89;;;6.85;74.14
41706;BME280;27385;51.096;17.190;2022-12-29T08:24:17;99788.31;;;6.89;74.05
41706;BME280;27385;51.096;17.190;2022-12-29T08:26:48;99784.83;;;6.94;73.98
41706;BME280;27385;51.096;17.190;2022-12-29T08:29:19;99785.34;;;6.99;74.07
41706;BME280;27385;51.096;17.190;2022-12-29T08:31:50;99791.05;;;7.03;73.99
41706;BME280;27385;51.096;17.190;2022-12-29T08:34:21;99794.90;;;7.08;73.96
41706;BME280;27385;51.096;17.190;2022-12-29T08:36:52;99798.57;;;7.13;73.77
41706;BME280;27385;51.096;17.190;2022-12-29T08:39:23;99800.77;;;7.18;73.74
41706;BME280;27385;51.096;17.190;2022-12-29T08:41:55;99797.89;;;7.24;73.72
41706;BME280;27385;51.096;17.190;2022-12-29T08:44:26;99793.59;;;7.29;73.57
41706;BME280;27385;51.096;17.190;2022-12-29T08:46:57;99794.64;;;7.34;73.38
41706;BME280;27385;51.096;17.190;2022-12-29T08:49:28;99788.70;;;7.39;73.38
41706;BME280;27385;51.096;17.190;2022-12-29T08:51:59;99785.80;;;7.43;73.25
41706;BME280;27385;51.096;17.190;2022-12-29T08:54:30;99788.04;;;7.48;73.07
41706;BME280;27385;51.096;17.190;2022-12-29T08:57:01;99794.44;;;7.52;72.86
41706;BME280;27385;51.096;17.190;2022-12-29T08:59:31;99803.22;;;7.56;72.94
41706;BME280;27385;51.096;17.190;2022-12-29T09:02:03;99802.29;;;7.60;72.82
41706;BME280;27385;51.096;17.190;2022-12-29T09:04:34;99808.40;;;7.63;72.94
41706;BME280;27385;51.096;17.190;2022-12-29T09:07:05;99807.20;;;7.67;73.04
41706;BME280;27385;51.096;17.190;2022-12-29T09:09:36;99807.02;;;7.69;72.51
41706;BME280;27385;51.096;17.190;2022-12-29T09:12:07;99806.76;;;7.71;72.53
41706;BME280;27385;51.096;17.190;2022-12-29T09:14:38;99812.83;;;7.74;72.58
41706;BME280;27385;51.096;17.190;2022-12-29T09:17:09;99816.89;;;7.77;72.62
41706;BME280;27385;51.096;17.190;2022-12-29T09:19:58;99815.02;;;7.79;72.54
41706;BME280;27385;51.096;17.190;2022-12-29T09:22:29;99813.28;;;7.80;72.33
41706;BME280;27385;51.096;17.190;2022-12-29T09:25:00;99807.16;;;7.82;72.27
41706;BME280;27385;51.096;17.190;2022-12-29T09:27:31;99796.06;;;7.85;72.35
41706;BME280;27385;51.096;17.190;2022-12-29T09:30:03;99798.30;;;7.88;72.23
41706;BME280;27385;51.096;17.190;2022-12-29T09:32:35;99797.48;;;7.90;72.42
41706;BME280;27385;51.096;17.190;2022-12-29T09:35:07;99802.70;;;7.92;71.97
41706;BME280;27385;51.096;17.190;2022-12-29T09:37:38;99800.83;;;7.95;71.95
41706;BME280;27385;51.096;17.190;2022-12-29T09:40:23;99801.00;;;7.98;72.13
41706;BME280;27385;51.096;17.190;2022-12-29T09:43:15;99806.77;;;8.00;72.08
41706;BME280;27385;51.096;17.190;2022-12-29T09:45:55;99804.10;;;8.03;72.00
41706;BME280;27385;51.096;17.190;2022-12-29T09:48:31;99799.38;;;8.06;72.20
41706;BME280;27385;51.096;17.190;2022-12-29T09:51:08;99797.00;;;8.11;72.16
41706;BME280;27385;51.096;17.190;2022-12-29T09:53:43;99795.15;;;8.14;72.13
41706;BME280;27385;51.096;17.190;2022-12-29T09:56:18;99793.85;;;8.20;72.21
41706;BME280;27385;51.096;17.190;2022-12-29T09:58:57;99793.36;;;8.24;71.84
41706;BME280;27385;51.096;17.190;2022-12-29T10:01:32;99784.69;;;8.28;71.81
41706;BME280;27385;51.096;17.190;2022-12-29T10:04:05;99778.73;;;8.32;71.68
41706;BME280;27385;51.096;17.190;2022-12-29T10:06:40;99775.06;;;8.37;71.74
41706;BME280;27385;51.096;17.190;2022-12-29T10:09:17;99772.08;;;8.41;71.60
41706;BME280;27385;51.096;17.190;2022-12-29T10:12:00;99769.13;;;8.46;71.71
41706;BME280;27385;51.096;17.190;2022-12-29T10:14:50;99762.64;;;8.50;71.72
41706;BME280;27385;51.096;17.190;2022-12-29T10:17:29;99764.02;;;8.56;71.59
41706;BME280;27385;51.096;17.190;2022-12-29T10:20:20;99759.15;;;8.60;71.65
41706;BME280;27385;51.096;17.190;2022-12-29T10:23:22;99762.99;;;8.66;71.64
41706;BME280;27385;51.096;17.190;2022-12-29T10:25:56;99751.00;;;8.71;71.62
41706;BME280;27385;51.096;17.190;2022-12-29T10:28:37;99756.10;;;8.76;71.84
41706;BME280;27385;51.096;17.190;2022-12-29T10:31:16;99758.71;;;8.80;71.66
41706;BME280;27385;51.096;17.190;2022-12-29T10:33:51;99758.39;;;8.85;71.51
41706;BME280;27385;51.096;17.190;2022-12-29T10:36:28;99754.82;;;8.89;71.45
41706;BME280;27385;51.096;17.190;2022-12-29T10:39:06;99753.84;;;8.94;71.29
41706;BME280;27385;51.096;17.190;2022-12-29T10:41:43;99751.70;;;8.98;71.30
41706;BME280;27385;51.096;17.190;2022-12-29T10:44:18;99744.27;;;9.03;71.63
41706;BME280;27385;51.096;17.190;2022-12-29T10:46:55;99745.14;;;9.06;71.59
41706;BME280;27385;51.096;17.190;2022-12-29T10:49:27;99750.55;;;9.09;71.46
41706;BME280;27385;51.096;17.190;2022-12-29T10:52:04;99749.48;;;9.11;71.12
41706;BME280;27385;51.096;17.190;2022-12-29T10:54:44;99748.92;;;9.12;71.23
41706;BME280;27385;51.096;17.190;2022-12-29T10:57:24;99744.86;;;9.11;70.99
41706;BME280;27385;51.096;17.190;2022-12-29T10:59:56;99743.35;;;9.11;70.89
41706;BME280;27385;51.096;17.190;2022-12-29T11:03:08;99746.85;;;9.11;71.05
41706;BME280;27385;51.096;17.190;2022-12-29T11:05:48;99740.23;;;9.12;70.88
41706;BME280;27385;51.096;17.190;2022-12-29T11:08:24;99740.83;;;9.12;70.92
41706;BME280;27385;51.096;17.190;2022-12-29T11:11:03;99746.23;;;9.14;70.74
41706;BME280;27385;51.096;17.190;2022-12-29T11:13:46;99740.86;;;9.16;70.62
41706;BME280;27385;51.096;17.190;2022-12-29T11:16:28;99739.77;;;9.19;70.18
41706;BME280;27385;51.096;17.190;2022-12-29T11:19:01;99728.98;;;9.21;70.13
41706;BME280;27385;51.096;17.190;2022-12-29T11:21:37;99728.05;;;9.22;69.71
41706;BME280;27385;51.096;17.190;2022-12-29T11:24:21;99729.44;;;9.24;69.91
41706;BME280;27385;51.096;17.190;2022-12-29T11:26:55;99728.55;;;9.26;69.67
41706;BME280;27385;51.096;17.190;2022-12-29T11:29:29;99722.77;;;9.28;69.69
41706;BME280;27385;51.096;17.190;2022-12-29T11:32:17;99724.03;;;9.31;69.70
41706;BME280;27385;51.096;17.190;2022-12-29T11:34:48;99722.20;;;9.34;69.80
41706;BME280;27385;51.096;17.190;2022-12-29T11:37:23;99719.45;;;9.36;69.77
41706;BME280;27385;51.096;17.190;2022-12-29T11:39:58;99718.46;;;9.38;69.78
41706;BME280;27385;51.096;17.190;2022-12-29T11:42:36;99719.81;;;9.39;70.05
41706;BME280;27385;51.096;17.190;2022-12-29T11:45:15;99716.29;;;9.41;69.98
41706;BME280;27385;51.096;17.190;2022-12-29T11:47:50;99711.54;;;9.42;70.21
41706;BME280;27385;51.096;17.190;2022-12-29T11:50:25;99707.26;;;9.43;69.92
41706;BME280;27385;51.096;17.190;2022-12-29T11:53:03;99708.84;;;9.45;70.21
41706;BME280;27385;51.096;17.190;2022-12-29T11:55:35;99701.81;;;9.45;70.12
41706;BME280;27385;51.096;17.190;2022-12-29T11:58:11;99704.80;;;9.46;70.35
41706;BME280;27385;51.096;17.190;2022-12-29T12:00:47;99698.85;;;9.47;70.41
41706;BME280;27385;51.096;17.190;2022-12-29T12:03:21;99697.67;;;9.47;70.18
41706;BME280;27385;51.096;17.190;2022-12-29T12:05:57;99702.14;;;9.48;70.30
41706;BME280;27385;51.096;17.190;2022-12-29T12:08:35;99698.45;;;9.48;70.29
41706;BME280;27385;51.096;17.190;2022-12-29T12:11:12;99696.08;;;9.48;70.18
41706;BME280;27385;51.096;17.190;2022-12-29T12:13:52;99695.60;;;9.48;70.11
41706;BME280;27385;51.096;17.190;2022-12-29T12:16:31;99693.48;;;9.47;70.10
41706;BME280;27385;51.096;17.190;2022-12-29T12:19:12;99695.09;;;9.47;70.14
41706;BME280;27385;51.096;17.190;2022-12-29T12:21:50;99690.14;;;9.48;70.28
41706;BME280;27385;51.096;17.190;2022-12-29T12:24:37;99689.93;;;9.47;70.20
41706;BME280;27385;51.096;17.190;2022-12-29T12:27:15;99684.55;;;9.45;70.17
41706;BME280;27385;51.096;17.190;2022-12-29T12:29:56;99684.67;;;9.44;70.48
41706;BME280;27385;51.096;17.190;2022-12-29T12:32:39;99681.45;;;9.42;70.51
41706;BME280;27385;51.096;17.190;2022-12-29T12:35:15;99679.45;;;9.40;70.58
41706;BME280;27385;51.096;17.190;2022-12-29T12:38:01;99675.27;;;9.36;70.63
41706;BME280;27385;51.096;17.190;2022-12-29T12:40:52;99677.25;;;9.32;70.81
41706;BME280;27385;51.096;17.190;2022-12-29T12:43:42;99675.41;;;9.28;70.82
41706;BME280;27385;51.096;17.190;2022-12-29T12:46:23;99671.73;;;9.25;70.94
41706;BME280;27385;51.096;17.190;2022-12-29T12:49:16;99664.77;;;9.21;70.98
41706;BME280;27385;51.096;17.190;2022-12-29T12:51:58;99665.10;;;9.16;71.05
41706;BME280;27385;51.096;17.190;2022-12-29T12:54:44;99670.68;;;9.14;71.23
41706;BME280;27385;51.096;17.190;2022-12-29T12:57:27;99675.95;;;9.09;71.32
41706;BME280;27385;51.096;17.190;2022-12-29T13:00:07;99679.05;;;9.05;71.46
41706;BME280;27385;51.096;17.190;2022-12-29T13:02:48;99677.80;;;9.02;71.54
41706;BME280;27385;51.096;17.190;2022-12-29T13:05:40;99676.55;;;8.97;71.74
41706;BME280;27385;51.096;17.190;2022-12-29T13:08:37;99675.91;;;8.95;71.79
41706;BME280;27385;51.096;17.190;2022-12-29T13:11:20;99673.73;;;8.92;72.09
41706;BME280;27385;51.096;17.190;2022-12-29T13:14:06;99670.06;;;8.90;71.91
41706;BME280;27385;51.096;17.190;2022-12-29T13:16:44;99674.30;;;8.89;72.08
41706;BME280;27385;51.096;17.190;2022-12-29T13:19:23;99674.20;;;8.89;72.20
41706;BME280;27385;51.096;17.190;2022-12-29T13:22:04;99676.25;;;8.88;72.41
41706;BME280;27385;51.096;17.190;2022-12-29T13:24:44;99677.30;;;8.87;72.47
41706;BME280;27385;51.096;17.190;2022-12-29T13:27:21;99680.22;;;8.86;72.50
41706;BME280;27385;51.096;17.190;2022-12-29T13:30:03;99681.08;;;8.86;72.65
41706;BME280;27385;51.096;17.190;2022-12-29T13:32:48;99679.16;;;8.86;72.83
41706;BME280;27385;51.096;17.190;2022-12-29T13:35:34;99681.92;;;8.86;72.77
41706;BME280;27385;51.096;17.190;2022-12-29T13:38:15;99683.73;;;8.84;72.91
41706;BME280;27385;51.096;17.190;2022-12-29T13:40:52;99681.91;;;8.84;73.04
41706;BME280;27385;51.096;17.190;2022-12-29T13:43:26;99685.40;;;8.84;73.24
41706;BME280;27385;51.096;17.190;2022-12-29T13:46:03;99692.14;;;8.85;73.14
41706;BME280;27385;51.096;17.190;2022-12-29T13:48:41;99697.17;;;8.86;73.03
41706;BME280;27385;51.096;17.190;2022-12-29T13:51:16;99705.63;;;8.90;72.83
41706;BME280;27385;51.096;17.190;2022-12-29T13:54:10;99703.85;;;8.95;72.81
41706;BME280;27385;51.096;17.190;2022-12-29T13:56:45;99713.82;;;8.98;72.69